sensor_id;sensor_type;location;lat;lon;timestamp;pressure;altitude;pressure_sealevel;temperature;humidity
52535;BME280;38443;53.164;5.802;2023-03-19T00:01:25;101164.72;;;8.90;100.00
52535;BME280;38443;53.164;5.802;2023-03-19T00:03:50;101167.38;;;8.91;100.00
52535;BME280;38443;53.164;5.802;2023-03-19T00:06:15;101161.16;;;8.92;100.00
52535;BME280;38443;53.164;5.802;2023-03-19T00:08:41;101163.78;;;8.94;100.00
52535;BME280;38443;53.164;5.802;2023-03-19T00:11:07;101154.00;;;8.94;100.00
52535;BME280;38443;53.164;5.802;2023-03-19T00:13:32;101162.88;;;8.95;100.00
52535;BME280;38443;53.164;5.802;2023-03-19T00:15:57;101163.75;;;8.95;100.00
52535;BME280;38443;53.164;5.802;2023-03-19T00:18:23;101158.44;;;8.94;100.00
52535;BME280;38443;53.164;5.802;2023-03-19T00:20:48;101164.72;;;8.91;100.00
52535;BME280;38443;53.164;5.802;2023-03-19T00:23:13;101158.53;;;8.89;100.00
52535;BME280;38443;53.164;5.802;2023-03-19T00:25:39;101158.53;;;8.89;100.00
52535;BME280;38443;53.164;5.802;2023-03-19T00:28:04;101155.94;;;8.85;100.00
52535;BME280;38443;53.164;5.802;2023-03-19T00:30:29;101165.69;;;8.86;100.00
52535;BME280;38443;53.164;5.802;2023-03-19T00:32:54;101163.97;;;8.83;100.00
52535;BME280;38443;53.164;5.802;2023-03-19T00:35:20;101168.44;;;8.81;100.00
52535;BME280;38443;53.164;5.802;2023-03-19T00:37:45;101164.94;;;8.79;100.00
52535;BME280;38443;53.164;5.802;2023-03-19T00:40:11;101168.53;;;8.76;100.00
52535;BME280;38443;53.164;5.802;2023-03-19T00:42:36;101168.56;;;8.75;100.00
52535;BME280;38443;53.164;5.802;2023-03-19T00:45:02;101176.56;;;8.75;100.00
52535;BME280;38443;53.164;5.802;2023-03-19T00:47:27;101177.44;;;8.74;100.00
52535;BME280;38443;53.164;5.802;2023-03-19T00:49:53;101177.50;;;8.72;100.00
52535;BME280;38443;53.164;5.802;2023-03-19T00:52:18;101177.53;;;8.71;100.00
52535;BME280;38443;53.164;5.802;2023-03-19T00:54:43;101172.19;;;8.69;100.00
52535;BME280;38443;53.164;5.802;2023-03-19T00:57:09;101181.06;;;8.70;100.00
52535;BME280;38443;53.164;5.802;2023-03-19T00:59:34;101177.56;;;8.68;100.00
52535;BME280;38443;53.164;5.802;2023-03-19T01:01:59;101184.69;;;8.67;100.00
52535;BME280;38443;53.164;5.802;2023-03-19T01:04:25;101180.28;;;8.66;100.00
52535;BME280;38443;53.164;5.802;2023-03-19T01:06:50;101183.84;;;8.65;100.00
52535;BME280;38443;53.164;5.802;2023-03-19T01:09:16;101183.84;;;8.65;100.00
52535;BME280;38443;53.164;5.802;2023-03-19T01:11:41;101183.84;;;8.65;100.00
52535;BME280;38443;53.164;5.802;2023-03-19T01:14:06;101181.19;;;8.64;100.00
52535;BME280;38443;53.164;5.802;2023-03-19T01:16:32;101187.41;;;8.64;100.00
52535;BME280;38443;53.164;5.802;2023-03-19T01:18:59;101177.66;;;8.62;100.00
52535;BME280;38443;53.164;5.802;2023-03-19T01:21:25;101181.22;;;8.62;100.00
52535;BME280;38443;53.164;5.802;2023-03-19T01:23:51;101173.22;;;8.62;100.00
52535;BME280;38443;53.164;5.802;2023-03-19T01:26:17;101175.03;;;8.60;100.00
52535;BME280;38443;53.164;5.802;2023-03-19T01:28:42;101183.94;;;8.59;100.00
52535;BME280;38443;53.164;5.802;2023-03-19T01:31:08;101179.44;;;8.63;100.00
52535;BME280;38443;53.164;5.802;2023-03-19T01:33:34;101181.19;;;8.64;100.00
52535;BME280;38443;53.164;5.802;2023-03-19T01:35:59;101177.59;;;8.66;100.00
52535;BME280;38443;53.164;5.802;2023-03-19T01:38:27;101171.34;;;8.67;100.00
52535;BME280;38443;53.164;5.802;2023-03-19T01:40:52;101176.69;;;8.67;100.00
52535;BME280;38443;53.164;5.802;2023-03-19T01:43:21;101168.69;;;8.67;100.00
52535;BME280;38443;53.164;5.802;2023-03-19T01:45:49;101173.13;;;8.68;100.00
52535;BME280;38443;53.164;5.802;2023-03-19T01:48:45;101170.38;;;8.71;100.00
52535;BME280;38443;53.164;5.802;2023-03-19T01:51:15;101174.88;;;8.69;100.00
52535;BME280;38443;53.164;5.802;2023-03-19T01:53:44;101174.88;;;8.69;100.00
52535;BME280;38443;53.164;5.802;2023-03-19T01:56:16;101169.53;;;8.68;100.00
52535;BME280;38443;53.164;5.802;2023-03-19T01:58:45;101171.34;;;8.67;100.00
52535;BME280;38443;53.164;5.802;2023-03-19T02:01:13;101172.22;;;8.68;100.00
52535;BME280;38443;53.164;5.802;2023-03-19T02:03:38;101169.53;;;8.68;100.00
52535;BME280;38443;53.164;5.802;2023-03-19T02:06:04;101176.66;;;8.69;100.00
52535;BME280;38443;53.164;5.802;2023-03-19T02:08:31;101175.75;;;8.70;100.00
52535;BME280;38443;53.164;5.802;2023-03-19T02:10:57;101187.31;;;8.70;100.00
52535;BME280;38443;53.164;5.802;2023-03-19T02:13:26;101182.84;;;8.71;100.00
52535;BME280;38443;53.164;5.802;2023-03-19T02:15:52;101184.66;;;8.69;100.00
52535;BME280;38443;53.164;5.802;2023-03-19T02:18:18;101174.94;;;8.66;100.00
52535;BME280;38443;53.164;5.802;2023-03-19T02:21:06;101185.63;;;8.65;100.00
52535;BME280;38443;53.164;5.802;2023-03-19T02:23:35;101187.44;;;8.63;100.00
52535;BME280;38443;53.164;5.802;2023-03-19T02:26:05;101183.00;;;8.62;100.00
52535;BME280;38443;53.164;5.802;2023-03-19T02:28:32;101183.00;;;8.62;100.00
52535;BME280;38443;53.164;5.802;2023-03-19T02:30:58;101178.56;;;8.62;100.00
52535;BME280;38443;53.164;5.802;2023-03-19T02:33:23;101173.22;;;8.62;100.00
52535;BME280;38443;53.164;5.802;2023-03-19T02:35:49;101169.66;;;8.62;100.00
52535;BME280;38443;53.164;5.802;2023-03-19T02:38:16;101176.78;;;8.59;100.00
52535;BME280;38443;53.164;5.802;2023-03-19T02:40:46;101175.03;;;8.60;100.00
52535;BME280;38443;53.164;5.802;2023-03-19T02:43:13;101186.63;;;8.57;100.00
52535;BME280;38443;53.164;5.802;2023-03-19T02:45:39;101183.94;;;8.59;100.00
52535;BME280;38443;53.164;5.802;2023-03-19T02:48:04;101181.31;;;8.56;100.00
52535;BME280;38443;53.164;5.802;2023-03-19T02:50:29;101183.06;;;8.58;100.00
52535;BME280;38443;53.164;5.802;2023-03-19T02:52:55;101191.94;;;8.57;100.00
52535;BME280;38443;53.164;5.802;2023-03-19T02:55:20;101193.75;;;8.57;100.00
52535;BME280;38443;53.164;5.802;2023-03-19T02:57:46;101197.28;;;8.57;100.00
52535;BME280;38443;53.164;5.802;2023-03-19T03:00:12;101193.75;;;8.57;100.00
52535;BME280;38443;53.164;5.802;2023-03-19T03:02:38;101197.28;;;8.57;100.00
52535;BME280;38443;53.164;5.802;2023-03-19T03:05:04;101203.53;;;8.56;100.00
52535;BME280;38443;53.164;5.802;2023-03-19T03:07:30;101208.81;;;8.59;100.00
52535;BME280;38443;53.164;5.802;2023-03-19T03:09:57;101210.59;;;8.59;100.00
52535;BME280;38443;53.164;5.802;2023-03-19T03:12:22;101214.16;;;8.59;100.00
52535;BME280;38443;53.164;5.802;2023-03-19T03:14:47;101210.63;;;8.57;100.00
52535;BME280;38443;53.164;5.802;2023-03-19T03:17:13;101223.94;;;8.59;100.00
52535;BME280;38443;53.164;5.802;2023-03-19T03:19:39;101223.09;;;8.57;100.00
52535;BME280;38443;53.164;5.802;2023-03-19T03:22:04;101223.06;;;8.58;100.00
52535;BME280;38443;53.164;5.802;2023-03-19T03:24:30;101219.56;;;8.56;100.00
52535;BME280;38443;53.164;5.802;2023-03-19T03:26:55;101218.69;;;8.54;100.00
52535;BME280;38443;53.164;5.802;2023-03-19T03:29:21;101214.22;;;8.55;100.00
52535;BME280;38443;53.164;5.802;2023-03-19T03:31:46;101225.84;;;8.52;100.00
52535;BME280;38443;53.164;5.802;2023-03-19T03:34:11;101218.78;;;8.48;100.00
52535;BME280;38443;53.164;5.802;2023-03-19T03:36:37;101217.00;;;8.47;100.00
52535;BME280;38443;53.164;5.802;2023-03-19T03:39:03;101217.09;;;8.43;100.00
52535;BME280;38443;53.164;5.802;2023-03-19T03:41:28;101219.75;;;8.39;100.00
52535;BME280;38443;53.164;5.802;2023-03-19T03:43:53;101218.03;;;8.35;100.00
52535;BME280;38443;53.164;5.802;2023-03-19T03:46:19;101221.63;;;8.34;100.00
52535;BME280;38443;53.164;5.802;2023-03-19T03:48:44;101218.97;;;8.33;100.00
52535;BME280;38443;53.164;5.802;2023-03-19T03:51:09;101221.66;;;8.31;100.00
52535;BME280;38443;53.164;5.802;2023-03-19T03:53:35;101227.00;;;8.30;100.00
52535;BME280;38443;53.164;5.802;2023-03-19T03:56:01;101227.03;;;8.28;100.00
52535;BME280;38443;53.164;5.802;2023-03-19T03:58:26;101227.94;;;8.26;100.00
52535;BME280;38443;53.164;5.802;2023-03-19T04:00:52;101227.97;;;8.24;100.00
52535;BME280;38443;53.164;5.802;2023-03-19T04:03:18;101230.66;;;8.23;100.00
52535;BME280;38443;53.164;5.802;2023-03-19T04:05:44;101231.59;;;8.18;100.00
52535;BME280;38443;53.164;5.802;2023-03-19T04:08:09;101229.91;;;8.11;100.00
52535;BME280;38443;53.164;5.802;2023-03-19T04:10:37;101234.47;;;8.02;100.00
52535;BME280;38443;53.164;5.802;2023-03-19T04:13:03;101235.44;;;7.96;100.00
52535;BME280;38443;53.164;5.802;2023-03-19T04:15:28;101236.41;;;7.89;100.00
52535;BME280;38443;53.164;5.802;2023-03-19T04:17:53;101236.44;;;7.87;100.00
52535;BME280;38443;53.164;5.802;2023-03-19T04:20:19;101230.25;;;7.84;100.00
52535;BME280;38443;53.164;5.802;2023-03-19T04:22:46;101231.19;;;7.79;100.00
52535;BME280;38443;53.164;5.802;2023-03-19T04:25:12;101227.72;;;7.74;100.00
52535;BME280;38443;53.164;5.802;2023-03-19T04:27:37;101238.44;;;7.67;100.00
52535;BME280;38443;53.164;5.802;2023-03-19T04:30:03;101234.97;;;7.58;100.00
52535;BME280;38443;53.164;5.802;2023-03-19T04:32:28;101236.84;;;7.50;100.00
52535;BME280;38443;53.164;5.802;2023-03-19T04:34:53;101236.91;;;7.43;100.00
52535;BME280;38443;53.164;5.802;2023-03-19T04:37:19;101247.63;;;7.36;100.00
52535;BME280;38443;53.164;5.802;2023-03-19T04:39:44;101247.69;;;7.30;100.00
52535;BME280;38443;53.164;5.802;2023-03-19T04:42:09;101245.09;;;7.24;100.00
52535;BME280;38443;53.164;5.802;2023-03-19T04:44:35;101237.16;;;7.18;100.00
52535;BME280;38443;53.164;5.802;2023-03-19T04:47:02;101246.06;;;7.14;100.00
52535;BME280;38443;53.164;5.802;2023-03-19T04:49:27;101238.97;;;7.11;100.00
52535;BME280;38443;53.164;5.802;2023-03-19T04:51:52;101250.53;;;7.09;100.00
52535;BME280;38443;53.164;5.802;2023-03-19T04:54:17;101241.69;;;7.10;100.00
52535;BME280;38443;53.164;5.802;2023-03-19T04:56:43;101245.25;;;7.06;100.00
52535;BME280;38443;53.164;5.802;2023-03-19T04:59:08;101239.97;;;6.99;100.00
52535;BME280;38443;53.164;5.802;2023-03-19T05:01:34;101247.16;;;6.90;100.00
52535;BME280;38443;53.164;5.802;2023-03-19T05:04:00;101245.41;;;6.84;100.00
52535;BME280;38443;53.164;5.802;2023-03-19T05:06:26;101251.72;;;6.74;100.00
52535;BME280;38443;53.164;5.802;2023-03-19T05:08:52;101257.06;;;6.66;100.00
52535;BME280;38443;53.164;5.802;2023-03-19T05:11:17;101257.13;;;6.57;100.00
52535;BME280;38443;53.164;5.802;2023-03-19T05:13:43;101252.75;;;6.50;100.00
52535;BME280;38443;53.164;5.802;2023-03-19T05:16:08;101250.09;;;6.47;100.00
52535;BME280;38443;53.164;5.802;2023-03-19T05:18:33;101255.41;;;6.47;100.00
52535;BME280;38443;53.164;5.802;2023-03-19T05:20:59;101260.72;;;6.45;100.00
52535;BME280;38443;53.164;5.802;2023-03-19T05:23:24;101260.75;;;6.44;100.00
52535;BME280;38443;53.164;5.802;2023-03-19T05:25:49;101259.88;;;6.40;100.00
52535;BME280;38443;53.164;5.802;2023-03-19T05:28:15;101259.88;;;6.42;100.00
52535;BME280;38443;53.164;5.802;2023-03-19T05:30:40;101262.59;;;6.35;100.00
52535;BME280;38443;53.164;5.802;2023-03-19T05:33:06;101259.94;;;6.34;100.00
52535;BME280;38443;53.164;5.802;2023-03-19T05:35:31;101275.00;;;6.32;100.00
52535;BME280;38443;53.164;5.802;2023-03-19T05:37:56;101274.09;;;6.36;100.00
52535;BME280;38443;53.164;5.802;2023-03-19T05:40:22;101281.16;;;6.37;100.00
52535;BME280;38443;53.164;5.802;2023-03-19T05:42:48;101283.81;;;6.38;100.00
52535;BME280;38443;53.164;5.802;2023-03-19T05:45:13;101283.84;;;6.32;100.00
52535;BME280;38443;53.164;5.802;2023-03-19T05:47:39;101287.41;;;6.25;100.00
52535;BME280;38443;53.164;5.802;2023-03-19T05:50:05;101290.97;;;6.21;100.00
52535;BME280;38443;53.164;5.802;2023-03-19T05:52:30;101295.41;;;6.24;100.00
52535;BME280;38443;53.164;5.802;2023-03-19T05:54:56;101295.41;;;6.24;100.00
52535;BME280;38443;53.164;5.802;2023-03-19T05:57:21;101296.28;;;6.26;100.00
52535;BME280;38443;53.164;5.802;2023-03-19T05:59:46;101307.81;;;6.26;100.00
52535;BME280;38443;53.164;5.802;2023-03-19T06:02:12;101309.59;;;6.23;100.00
52535;BME280;38443;53.164;5.802;2023-03-19T06:04:37;101311.38;;;6.22;100.00
52535;BME280;38443;53.164;5.802;2023-03-19T06:07:02;101314.00;;;6.25;100.00
52535;BME280;38443;53.164;5.802;2023-03-19T06:09:28;101318.44;;;6.28;100.00
52535;BME280;38443;53.164;5.802;2023-03-19T06:11:53;101313.09;;;6.31;100.00
52535;BME280;38443;53.164;5.802;2023-03-19T06:14:19;101313.13;;;6.28;100.00
52535;BME280;38443;53.164;5.802;2023-03-19T06:16:44;101318.44;;;6.25;100.00
52535;BME280;38443;53.164;5.802;2023-03-19T06:19:10;101319.31;;;6.25;100.00
52535;BME280;38443;53.164;5.802;2023-03-19T06:21:35;101320.19;;;6.29;100.00
52535;BME280;38443;53.164;5.802;2023-03-19T06:24:01;101330.81;;;6.32;100.00
52535;BME280;38443;53.164;5.802;2023-03-19T06:26:26;101332.59;;;6.36;100.00
52535;BME280;38443;53.164;5.802;2023-03-19T06:28:52;101339.66;;;6.37;100.00
52535;BME280;38443;53.164;5.802;2023-03-19T06:31:17;101344.94;;;6.46;100.00
52535;BME280;38443;53.164;5.802;2023-03-19T06:33:42;101336.00;;;6.63;100.00
52535;BME280;38443;53.164;5.802;2023-03-19T06:36:08;101347.41;;;6.88;100.00
52535;BME280;38443;53.164;5.802;2023-03-19T06:38:33;101344.56;;;7.14;100.00
52535;BME280;38443;53.164;5.802;2023-03-19T06:40:59;101359.38;;;7.47;100.00
52535;BME280;38443;53.164;5.802;2023-03-19T06:43:25;101354.81;;;7.65;100.00
52535;BME280;38443;53.164;5.802;2023-03-19T06:45:50;101346.53;;;7.94;100.00
52535;BME280;38443;53.164;5.802;2023-03-19T06:48:16;101344.53;;;8.16;100.00
52535;BME280;38443;53.164;5.802;2023-03-19T06:50:44;101351.38;;;8.37;100.00
52535;BME280;38443;53.164;5.802;2023-03-19T06:53:09;101346.75;;;8.54;100.00
52535;BME280;38443;53.164;5.802;2023-03-19T06:55:35;101345.66;;;8.68;100.00
52535;BME280;38443;53.164;5.802;2023-03-19T06:58:01;101342.91;;;8.75;100.00
52535;BME280;38443;53.164;5.802;2023-03-19T07:00:26;101343.38;;;8.37;100.00
52535;BME280;38443;53.164;5.802;2023-03-19T07:02:52;101347.13;;;8.21;100.00
52535;BME280;38443;53.164;5.802;2023-03-19T07:05:17;101362.47;;;7.97;100.00
52535;BME280;38443;53.164;5.802;2023-03-19T07:07:42;101363.41;;;7.93;100.00
52535;BME280;38443;53.164;5.802;2023-03-19T07:10:08;101362.72;;;7.74;100.00
52535;BME280;38443;53.164;5.802;2023-03-19T07:12:33;101368.06;;;7.71;100.00
52535;BME280;38443;53.164;5.802;2023-03-19T07:14:59;101382.38;;;7.59;100.00
52535;BME280;38443;53.164;5.802;2023-03-19T07:17:25;101385.91;;;7.61;100.00
52535;BME280;38443;53.164;5.802;2023-03-19T07:19:50;101387.69;;;7.61;100.00
52535;BME280;38443;53.164;5.802;2023-03-19T07:22:16;101406.41;;;7.53;100.00
52535;BME280;38443;53.164;5.802;2023-03-19T07:24:42;101401.06;;;7.56;100.00
52535;BME280;38443;53.164;5.802;2023-03-19T07:27:07;101409.94;;;7.55;100.00
52535;BME280;38443;53.164;5.802;2023-03-19T07:29:32;101411.78;;;7.45;100.00
52535;BME280;38443;53.164;5.802;2023-03-19T07:31:58;101417.09;;;7.45;100.00
52535;BME280;38443;53.164;5.802;2023-03-19T07:34:23;101410.06;;;7.36;100.00
52535;BME280;38443;53.164;5.802;2023-03-19T07:36:48;101416.28;;;7.38;100.00
52535;BME280;38443;53.164;5.802;2023-03-19T07:39:15;101417.16;;;7.37;100.00
52535;BME280;38443;53.164;5.802;2023-03-19T07:41:40;101426.97;;;7.31;100.00
52535;BME280;38443;53.164;5.802;2023-03-19T07:44:09;101434.97;;;7.34;100.00
52535;BME280;38443;53.164;5.802;2023-03-19T07:46:34;101435.00;;;7.25;100.00
52535;BME280;38443;53.164;5.802;2023-03-19T07:48:59;101440.28;;;7.29;100.00
52535;BME280;38443;53.164;5.802;2023-03-19T07:51:25;101428.81;;;7.26;100.00
52535;BME280;38443;53.164;5.802;2023-03-19T07:53:50;101432.28;;;7.32;100.00
52535;BME280;38443;53.164;5.802;2023-03-19T07:56:15;101430.50;;;7.34;100.00
52535;BME280;38443;53.164;5.802;2023-03-19T07:58:41;101439.38;;;7.36;100.00
52535;BME280;38443;53.164;5.802;2023-03-19T08:01:06;101438.50;;;7.31;100.00
52535;BME280;38443;53.164;5.802;2023-03-19T08:03:32;101441.25;;;7.21;100.00
52535;BME280;38443;53.164;5.802;2023-03-19T08:05:57;101433.25;;;7.22;100.00
52535;BME280;38443;53.164;5.802;2023-03-19T08:08:23;101441.25;;;7.24;100.00
52535;BME280;38443;53.164;5.802;2023-03-19T08:10:48;101438.63;;;7.13;100.00
52535;BME280;38443;53.164;5.802;2023-03-19T08:13:15;101451.06;;;7.14;100.00
52535;BME280;38443;53.164;5.802;2023-03-19T08:15:40;101449.31;;;7.07;100.00
52535;BME280;38443;53.164;5.802;2023-03-19T08:18:05;101454.63;;;7.05;100.00
52535;BME280;38443;53.164;5.802;2023-03-19T08:20:31;101454.66;;;7.02;100.00
52535;BME280;38443;53.164;5.802;2023-03-19T08:22:57;101455.59;;;6.89;100.00
52535;BME280;38443;53.164;5.802;2023-03-19T08:25:22;101460.91;;;6.92;100.00
52535;BME280;38443;53.164;5.802;2023-03-19T08:27:49;101462.66;;;6.96;100.00
52535;BME280;38443;53.164;5.802;2023-03-19T08:30:15;101469.75;;;6.98;100.00
52535;BME280;38443;53.164;5.802;2023-03-19T08:32:40;101470.63;;;6.99;100.00
52535;BME280;38443;53.164;5.802;2023-03-19T08:35:06;101473.28;;;7.02;100.00
52535;BME280;38443;53.164;5.802;2023-03-19T08:37:32;101481.25;;;7.10;100.00
52535;BME280;38443;53.164;5.802;2023-03-19T08:39:57;101486.56;;;7.10;100.00
52535;BME280;38443;53.164;5.802;2023-03-19T08:42:22;101488.28;;;7.17;100.00
52535;BME280;38443;53.164;5.802;2023-03-19T08:44:48;101486.53;;;7.11;100.00
52535;BME280;38443;53.164;5.802;2023-03-19T08:47:13;101491.84;;;7.16;100.00
52535;BME280;38443;53.164;5.802;2023-03-19T08:49:39;101493.59;;;7.23;100.00
52535;BME280;38443;53.164;5.802;2023-03-19T08:52:05;101486.50;;;7.22;100.00
52535;BME280;38443;53.164;5.802;2023-03-19T08:54:31;101498.03;;;7.23;100.00
52535;BME280;38443;53.164;5.802;2023-03-19T08:56:56;101491.84;;;7.16;100.00
52535;BME280;38443;53.164;5.802;2023-03-19T08:59:21;101505.13;;;7.22;100.00
52535;BME280;38443;53.164;5.802;2023-03-19T09:01:53;101507.81;;;7.24;100.00
52535;BME280;38443;53.164;5.802;2023-03-19T09:04:19;101511.31;;;7.30;100.00
52535;BME280;38443;53.164;5.802;2023-03-19T09:06:46;101521.91;;;7.39;100.00
52535;BME280;38443;53.164;5.802;2023-03-19T09:09:15;101522.78;;;7.43;100.00
52535;BME280;38443;53.164;5.802;2023-03-19T09:11:40;101519.22;;;7.44;100.00
52535;BME280;38443;53.164;5.802;2023-03-19T09:14:05;101520.06;;;7.51;100.00
52535;BME280;38443;53.164;5.802;2023-03-19T09:16:31;101520.97;;;7.45;100.00
52535;BME280;38443;53.164;5.802;2023-03-19T09:18:57;101521.84;;;7.50;100.00
52535;BME280;38443;53.164;5.802;2023-03-19T09:21:22;101527.22;;;7.46;100.00
52535;BME280;38443;53.164;5.802;2023-03-19T09:23:47;101532.50;;;7.50;100.00
52535;BME280;38443;53.164;5.802;2023-03-19T09:26:12;101534.28;;;7.48;100.00
52535;BME280;38443;53.164;5.802;2023-03-19T09:28:38;101525.34;;;7.57;100.00
52535;BME280;38443;53.164;5.802;2023-03-19T09:31:03;101538.63;;;7.62;100.00
52535;BME280;38443;53.164;5.802;2023-03-19T09:33:31;101548.38;;;7.70;100.00
52535;BME280;38443;53.164;5.802;2023-03-19T09:35:56;101541.31;;;7.68;100.00
52535;BME280;38443;53.164;5.802;2023-03-19T09:38:22;101543.88;;;7.75;100.00
52535;BME280;38443;53.164;5.802;2023-03-19T09:40:48;101553.72;;;7.69;100.00
52535;BME280;38443;53.164;5.802;2023-03-19T09:46:13;101555.47;;;7.73;100.00
52535;BME280;38443;53.164;5.802;2023-03-19T09:48:52;101556.34;;;7.73;100.00
52535;BME280;38443;53.164;5.802;2023-03-19T09:51:26;101561.63;;;7.81;100.00
52535;BME280;38443;53.164;5.802;2023-03-19T09:54:03;101557.16;;;7.85;100.00
52535;BME280;38443;53.164;5.802;2023-03-19T09:56:31;101561.56;;;7.90;100.00
52535;BME280;38443;53.164;5.802;2023-03-19T09:58:57;101558.88;;;7.95;100.00
52535;BME280;38443;53.164;5.802;2023-03-19T10:06:43;101562.25;;;8.20;100.00
52535;BME280;38443;53.164;5.802;2023-03-19T10:12:07;101571.19;;;8.11;100.00
52535;BME280;38443;53.164;5.802;2023-03-19T10:17:33;101572.97;;;8.14;100.00
52535;BME280;38443;53.164;5.802;2023-03-19T10:20:02;101572.94;;;8.15;100.00
52535;BME280;38443;53.164;5.802;2023-03-19T10:25:48;101564.97;;;8.14;100.00
52535;BME280;38443;53.164;5.802;2023-03-19T10:28:18;101567.66;;;8.09;100.00
52535;BME280;38443;53.164;5.802;2023-03-19T10:30:54;101566.78;;;8.07;100.00
52535;BME280;38443;53.164;5.802;2023-03-19T10:33:25;101571.22;;;8.08;100.00
52535;BME280;38443;53.164;5.802;2023-03-19T10:36:02;101563.22;;;8.07;100.00
52535;BME280;38443;53.164;5.802;2023-03-19T10:38:29;101565.84;;;8.14;100.00
52535;BME280;38443;53.164;5.802;2023-03-19T10:44:16;101566.72;;;8.15;100.00
52535;BME280;38443;53.164;5.802;2023-03-19T10:46:46;101586.22;;;8.23;100.00
52535;BME280;38443;53.164;5.802;2023-03-19T10:49:11;101577.41;;;8.13;100.00
52535;BME280;38443;53.164;5.802;2023-03-19T10:51:38;101580.06;;;8.15;100.00
52535;BME280;38443;53.164;5.802;2023-03-19T10:54:23;101595.19;;;8.13;100.00
52535;BME280;38443;53.164;5.802;2023-03-19T10:56:50;101588.06;;;8.13;100.00
52535;BME280;38443;53.164;5.802;2023-03-19T10:59:23;101596.06;;;8.13;100.00
52535;BME280;38443;53.164;5.802;2023-03-19T11:01:58;101603.22;;;8.05;100.00
52535;BME280;38443;53.164;5.802;2023-03-19T11:04:25;101605.84;;;8.13;100.00
52535;BME280;38443;53.164;5.802;2023-03-19T11:07:02;101598.72;;;8.15;100.00
52535;BME280;38443;53.164;5.802;2023-03-19T11:09:35;101597.75;;;8.27;100.00
52535;BME280;38443;53.164;5.802;2023-03-19T11:14:49;101598.56;;;8.38;100.00
52535;BME280;38443;53.164;5.802;2023-03-19T11:17:22;101594.13;;;8.35;100.00
52535;BME280;38443;53.164;5.802;2023-03-19T11:19:54;101594.16;;;8.34;100.00
52535;BME280;38443;53.164;5.802;2023-03-19T11:22:21;101587.91;;;8.36;100.00
52535;BME280;38443;53.164;5.802;2023-03-19T11:24:55;101600.34;;;8.42;100.00
52535;BME280;38443;53.164;5.802;2023-03-19T11:27:30;101587.88;;;8.44;100.00
52535;BME280;38443;53.164;5.802;2023-03-19T11:29:55;101584.22;;;8.56;100.00
52535;BME280;38443;53.164;5.802;2023-03-19T11:32:41;101581.56;;;8.53;100.00
52535;BME280;38443;53.164;5.802;2023-03-19T11:35:20;101584.19;;;8.57;100.00
52535;BME280;38443;53.164;5.802;2023-03-19T11:37:56;101588.63;;;8.58;100.00
52535;BME280;38443;53.164;5.802;2023-03-19T11:51:09;101591.25;;;8.63;100.00
52535;BME280;38443;53.164;5.802;2023-03-19T11:56:36;101594.78;;;8.65;100.00
52535;BME280;38443;53.164;5.802;2023-03-19T11:59:19;101589.41;;;8.70;100.00
52535;BME280;38443;53.164;5.802;2023-03-19T12:02:19;101592.13;;;8.67;100.00
52535;BME280;38443;53.164;5.802;2023-03-19T12:05:02;101588.56;;;8.65;100.00
52535;BME280;38443;53.164;5.802;2023-03-19T12:07:45;101584.13;;;8.65;100.00
52535;BME280;38443;53.164;5.802;2023-03-19T12:10:32;101591.25;;;8.63;100.00
52535;BME280;38443;53.164;5.802;2023-03-19T12:26:18;101629.41;;;8.74;100.00
52535;BME280;38443;53.164;5.802;2023-03-19T12:28:58;101621.41;;;8.76;100.00
52535;BME280;38443;53.164;5.802;2023-03-19T12:36:45;101631.16;;;8.80;100.00
52535;BME280;38443;53.164;5.802;2023-03-19T12:39:17;101620.47;;;8.80;100.00
52535;BME280;38443;53.164;5.802;2023-03-19T12:41:48;101619.53;;;8.84;100.00
52535;BME280;38443;53.164;5.802;2023-03-19T12:44:23;101620.34;;;8.92;100.00
52535;BME280;38443;53.164;5.802;2023-03-19T12:46:57;101617.63;;;8.97;100.00
52535;BME280;38443;53.164;5.802;2023-03-19T12:49:37;101622.88;;;9.05;100.00
52535;BME280;38443;53.164;5.802;2023-03-19T12:52:24;101627.28;;;9.09;100.00
52535;BME280;38443;53.164;5.802;2023-03-19T12:54:58;101618.34;;;9.11;100.00
52535;BME280;38443;53.164;5.802;2023-03-19T13:03:14;101630.75;;;9.17;100.00
52535;BME280;38443;53.164;5.802;2023-03-19T13:05:54;101635.16;;;9.24;100.00
52535;BME280;38443;53.164;5.802;2023-03-19T13:08:28;101636.84;;;9.31;100.00
52535;BME280;38443;53.164;5.802;2023-03-19T13:10:58;101626.94;;;9.38;100.00
52535;BME280;38443;53.164;5.802;2023-03-19T13:15:58;101624.13;;;9.52;100.00
52535;BME280;38443;53.164;5.802;2023-03-19T13:18:43;101627.56;;;9.60;100.00
52535;BME280;38443;53.164;5.802;2023-03-19T13:21:26;101629.38;;;9.59;100.00
52535;BME280;38443;53.164;5.802;2023-03-19T13:26:48;101634.69;;;9.64;100.00
52535;BME280;38443;53.164;5.802;2023-03-19T13:29:20;101641.78;;;9.65;100.00
52535;BME280;38443;53.164;5.802;2023-03-19T13:31:46;101632.00;;;9.64;100.00
52535;BME280;38443;53.164;5.802;2023-03-19T13:34:19;101642.72;;;9.59;100.00
52535;BME280;38443;53.164;5.802;2023-03-19T13:37:00;101641.88;;;9.57;100.00
52535;BME280;38443;53.164;5.802;2023-03-19T13:39:31;101642.88;;;9.50;100.00
52535;BME280;38443;53.164;5.802;2023-03-19T13:44:48;101641.13;;;9.45;100.00
52535;BME280;38443;53.164;5.802;2023-03-19T13:50:20;101653.66;;;9.41;100.00
52535;BME280;38443;53.164;5.802;2023-03-19T13:52:52;101647.38;;;9.44;100.00
52535;BME280;38443;53.164;5.802;2023-03-19T13:58:28;101647.44;;;9.39;100.00
52535;BME280;38443;53.164;5.802;2023-03-19T14:03:55;101666.22;;;9.30;100.00
52535;BME280;38443;53.164;5.802;2023-03-19T14:08:57;101666.28;;;9.27;100.00
52535;BME280;38443;53.164;5.802;2023-03-19T14:11:28;101665.41;;;9.23;100.00
52535;BME280;38443;53.164;5.802;2023-03-19T14:13:59;101664.53;;;9.24;100.00